Weather Data

Pearl Creek Farm: 8878 N Farm Road 75, Walnut Grove MO 65770

<== Previous Day (Tuesday 15 Jan 2013) | Next Day (Thursday 17 Jan 2013) ==>

Summary Precipitation Data For Wednesday 16 January 2013

ElementValueUnits
Precipitation0"
New Snow Depth0"
New Snow Water Equivalent0"
Total Snow DepthT
Total Snow Water Equivalent*0"
NotesStill ice and snow on the ground but not as much as the day it fell.
SourcePearl Creek Farm

* Total Snow Water Equivalent is not measured every day.

Summary Temperature Data For Wednesday 16 January 2013

ElementValueUnits
High Temperature39 oF
Low Temperature14 oF
Average Temperature25 oF
High Humidity92 %
Low Humidity66 %
Average Humidity82 %
SourcePearl Creek Farm

Detail Temperature Data For Wednesday 16 January 2013

Date / TimeTemp (F)RH (%)Dew Pt (F)Report Date / TimeSource
2013-01-16 00:00:00 18 88 14.9 2013-01-27 10:51:56 Pearl Creek Farm
2013-01-16 00:30:00 17 88 13.9 2013-01-27 10:51:56 Pearl Creek Farm
2013-01-16 01:00:00 17 88 13.9 2013-01-27 10:51:56 Pearl Creek Farm
2013-01-16 01:30:00 16 87 12.8 2013-01-27 10:51:56 Pearl Creek Farm
2013-01-16 02:00:00 16 87 12.8 2013-01-27 10:51:56 Pearl Creek Farm
2013-01-16 02:30:00 16 88 13.0 2013-01-27 10:51:56 Pearl Creek Farm
2013-01-16 03:00:00 15 87 11.7 2013-01-27 10:51:56 Pearl Creek Farm
2013-01-16 03:30:00 15 88 12.0 2013-01-27 10:51:56 Pearl Creek Farm
2013-01-16 04:00:00 15 88 12.0 2013-01-27 10:51:56 Pearl Creek Farm
2013-01-16 04:30:00 15 88 12.0 2013-01-27 10:51:56 Pearl Creek Farm
2013-01-16 05:00:00 15 88 12.0 2013-01-27 10:51:56 Pearl Creek Farm
2013-01-16 05:30:00 14 87 10.9 2013-01-27 10:51:56 Pearl Creek Farm
2013-01-16 06:00:00 14 87 10.9 2013-01-27 10:51:56 Pearl Creek Farm
2013-01-16 06:30:00 14 87 10.9 2013-01-27 10:51:56 Pearl Creek Farm
2013-01-16 07:00:00 14 87 10.9 2013-01-27 10:51:56 Pearl Creek Farm
2013-01-16 07:30:00 14 88 11.0 2013-01-27 10:51:56 Pearl Creek Farm
2013-01-16 08:00:00 15 88 12.1 2013-01-27 10:51:56 Pearl Creek Farm
2013-01-16 08:30:00 16 90 13.5 2013-01-27 10:51:56 Pearl Creek Farm
2013-01-16 09:00:00 19 92 16.9 2013-01-27 10:51:56 Pearl Creek Farm
2013-01-16 09:30:00 23 88 20.0 2013-01-27 10:51:56 Pearl Creek Farm
2013-01-16 10:00:00 26 85 22.1 2013-01-27 10:51:56 Pearl Creek Farm
2013-01-16 10:30:00 28 82 23.2 2013-01-27 10:51:56 Pearl Creek Farm
2013-01-16 11:00:00 31 80 25.6 2013-01-27 10:51:56 Pearl Creek Farm
2013-01-16 11:30:00 33 77 26.6 2013-01-27 10:51:56 Pearl Creek Farm
2013-01-16 12:00:00 34 73 26.1 2013-01-27 10:51:56 Pearl Creek Farm
2013-01-16 12:30:00 36 70 27.2 2013-01-27 10:51:56 Pearl Creek Farm
2013-01-16 13:00:00 37 70 28.2 2013-01-27 10:51:56 Pearl Creek Farm
2013-01-16 13:30:00 38 67 27.9 2013-01-27 10:51:56 Pearl Creek Farm
2013-01-16 14:00:00 38 68 28.2 2013-01-27 10:51:56 Pearl Creek Farm
2013-01-16 14:30:00 38 67 28.0 2013-01-27 10:51:56 Pearl Creek Farm
2013-01-16 15:00:00 39 67 28.8 2013-01-27 10:51:56 Pearl Creek Farm
2013-01-16 15:30:00 39 66 28.5 2013-01-27 10:51:56 Pearl Creek Farm
2013-01-16 16:00:00 39 68 29.2 2013-01-27 10:51:56 Pearl Creek Farm
2013-01-16 16:30:00 38 67 28.0 2013-01-27 10:51:56 Pearl Creek Farm
2013-01-16 17:00:00 37 71 28.3 2013-01-27 10:51:56 Pearl Creek Farm
2013-01-16 17:30:00 35 75 27.7 2013-01-27 10:51:56 Pearl Creek Farm
2013-01-16 18:00:00 32 80 26.6 2013-01-27 10:51:56 Pearl Creek Farm
2013-01-16 18:30:00 30 82 25.0 2013-01-27 10:51:56 Pearl Creek Farm
2013-01-16 19:00:00 29 83 24.5 2013-01-27 10:51:56 Pearl Creek Farm
2013-01-16 19:30:00 28 85 24.1 2013-01-27 10:51:56 Pearl Creek Farm
2013-01-16 20:00:00 27 86 23.2 2013-01-27 10:51:56 Pearl Creek Farm
2013-01-16 20:30:00 27 87 23.7 2013-01-27 10:51:56 Pearl Creek Farm
2013-01-16 21:00:00 26 87 22.7 2013-01-27 10:51:56 Pearl Creek Farm
2013-01-16 21:30:00 26 88 22.8 2013-01-27 10:51:56 Pearl Creek Farm
2013-01-16 22:00:00 26 89 23.1 2013-01-27 10:51:56 Pearl Creek Farm
2013-01-16 22:30:00 26 88 22.9 2013-01-27 10:51:56 Pearl Creek Farm
2013-01-16 23:00:00 25 89 22.2 2013-01-27 10:51:56 Pearl Creek Farm
2013-01-16 23:30:00 25 89 22.2 2013-01-27 10:51:56 Pearl Creek Farm

A total of 48 rows are displayed.